sensor_id;sensor_type;location;lat;lon;timestamp;pressure;altitude;pressure_sealevel;temperature;humidity
64886;BME280;51514;52.206;5.114;2023-12-22T00:00:37;100314.59;;;8.96;82.19
64886;BME280;51514;52.206;5.114;2023-12-22T00:03:03;100324.34;;;8.97;82.22
64886;BME280;51514;52.206;5.114;2023-12-22T00:05:28;100366.81;;;8.94;82.57
64886;BME280;51514;52.206;5.114;2023-12-22T00:07:53;100340.56;;;8.88;81.08
64886;BME280;51514;52.206;5.114;2023-12-22T00:10:19;100326.66;;;8.66;78.54
64886;BME280;51514;52.206;5.114;2023-12-22T00:12:44;100333.81;;;8.50;77.99
64886;BME280;51514;52.206;5.114;2023-12-22T00:15:10;100340.59;;;8.36;78.47
64886;BME280;51514;52.206;5.114;2023-12-22T00:17:35;100310.75;;;8.21;79.30
64886;BME280;51514;52.206;5.114;2023-12-22T00:20:00;100339.53;;;8.11;79.42
64886;BME280;51514;52.206;5.114;2023-12-22T00:22:28;100334.63;;;8.06;80.68
64886;BME280;51514;52.206;5.114;2023-12-22T00:24:53;100329.84;;;8.00;81.24
64886;BME280;51514;52.206;5.114;2023-12-22T00:27:19;100320.91;;;7.92;81.65
64886;BME280;51514;52.206;5.114;2023-12-22T00:29:44;100321.88;;;7.91;81.49
64886;BME280;51514;52.206;5.114;2023-12-22T00:32:09;100319.19;;;7.91;81.82
64886;BME280;51514;52.206;5.114;2023-12-22T00:34:35;100339.38;;;7.95;81.62
64886;BME280;51514;52.206;5.114;2023-12-22T00:37:01;100316.91;;;7.96;82.77
64886;BME280;51514;52.206;5.114;2023-12-22T00:39:26;100327.66;;;7.96;83.02
64886;BME280;51514;52.206;5.114;2023-12-22T00:41:52;100324.81;;;7.97;83.53
64886;BME280;51514;52.206;5.114;2023-12-22T00:44:17;100318.31;;;8.00;84.02
64886;BME280;51514;52.206;5.114;2023-12-22T00:46:42;100322.66;;;8.01;83.87
64886;BME280;51514;52.206;5.114;2023-12-22T00:49:08;100328.84;;;8.01;83.91
64886;BME280;51514;52.206;5.114;2023-12-22T00:51:33;100341.13;;;8.04;84.28
64886;BME280;51514;52.206;5.114;2023-12-22T00:53:58;100347.91;;;8.08;84.02
64886;BME280;51514;52.206;5.114;2023-12-22T00:56:23;100350.94;;;8.13;83.85
64886;BME280;51514;52.206;5.114;2023-12-22T00:58:49;100350.34;;;8.19;85.04
64886;BME280;51514;52.206;5.114;2023-12-22T01:01:14;100347.16;;;8.24;85.17
64886;BME280;51514;52.206;5.114;2023-12-22T01:03:39;100351.38;;;8.26;84.87
64886;BME280;51514;52.206;5.114;2023-12-22T01:06:05;100351.09;;;8.29;84.86
64886;BME280;51514;52.206;5.114;2023-12-22T01:08:30;100348.13;;;8.32;84.77
64886;BME280;51514;52.206;5.114;2023-12-22T01:10:56;100359.53;;;8.34;84.85
64886;BME280;51514;52.206;5.114;2023-12-22T01:13:21;100358.38;;;8.37;84.81
64886;BME280;51514;52.206;5.114;2023-12-22T01:15:47;100353.56;;;8.40;84.97
64886;BME280;51514;52.206;5.114;2023-12-22T01:18:12;100366.69;;;8.44;85.12
64886;BME280;51514;52.206;5.114;2023-12-22T01:20:37;100367.19;;;8.47;84.86
64886;BME280;51514;52.206;5.114;2023-12-22T01:23:03;100368.72;;;8.50;85.46
64886;BME280;51514;52.206;5.114;2023-12-22T01:25:28;100363.34;;;8.50;85.34
64886;BME280;51514;52.206;5.114;2023-12-22T01:27:54;100350.59;;;8.52;84.87
64886;BME280;51514;52.206;5.114;2023-12-22T01:30:19;100355.97;;;8.52;85.30
64886;BME280;51514;52.206;5.114;2023-12-22T01:32:45;100354.28;;;8.51;84.75
64886;BME280;51514;52.206;5.114;2023-12-22T01:35:10;100356.59;;;8.46;84.69
64886;BME280;51514;52.206;5.114;2023-12-22T01:37:36;100357.84;;;8.33;84.89
64886;BME280;51514;52.206;5.114;2023-12-22T01:40:02;100354.78;;;8.28;85.65
64886;BME280;51514;52.206;5.114;2023-12-22T01:42:28;100361.13;;;8.27;85.19
64886;BME280;51514;52.206;5.114;2023-12-22T01:44:54;100370.19;;;8.26;84.83
64886;BME280;51514;52.206;5.114;2023-12-22T01:47:19;100364.97;;;8.25;84.80
64886;BME280;51514;52.206;5.114;2023-12-22T01:49:44;100355.56;;;8.21;85.25
64886;BME280;51514;52.206;5.114;2023-12-22T01:52:10;100346.66;;;8.20;85.37
64886;BME280;51514;52.206;5.114;2023-12-22T01:54:36;100349.00;;;8.23;85.81
64886;BME280;51514;52.206;5.114;2023-12-22T01:57:02;100352.38;;;8.25;86.16
64886;BME280;51514;52.206;5.114;2023-12-22T01:59:27;100350.41;;;8.27;85.97
64886;BME280;51514;52.206;5.114;2023-12-22T02:01:56;100352.09;;;8.28;86.14
64886;BME280;51514;52.206;5.114;2023-12-22T02:04:22;100358.44;;;8.27;86.38
64886;BME280;51514;52.206;5.114;2023-12-22T02:06:48;100363.53;;;8.30;85.64
64886;BME280;51514;52.206;5.114;2023-12-22T02:09:14;100351.94;;;8.30;86.13
64886;BME280;51514;52.206;5.114;2023-12-22T02:11:39;100346.03;;;8.26;86.37
64886;BME280;51514;52.206;5.114;2023-12-22T02:14:05;100349.34;;;8.20;86.11
64886;BME280;51514;52.206;5.114;2023-12-22T02:16:37;100350.63;;;8.16;87.08
64886;BME280;51514;52.206;5.114;2023-12-22T02:19:15;100352.31;;;8.17;86.79
64886;BME280;51514;52.206;5.114;2023-12-22T02:22:02;100342.63;;;8.24;86.38
64886;BME280;51514;52.206;5.114;2023-12-22T02:24:29;100337.97;;;8.26;85.95
64886;BME280;51514;52.206;5.114;2023-12-22T02:30:12;100338.88;;;8.35;83.98
64886;BME280;51514;52.206;5.114;2023-12-22T02:32:48;100331.28;;;8.30;82.78
64886;BME280;51514;52.206;5.114;2023-12-22T02:35:19;100331.91;;;8.42;81.83
64886;BME280;51514;52.206;5.114;2023-12-22T02:37:46;100321.16;;;8.42;81.44
64886;BME280;51514;52.206;5.114;2023-12-22T02:40:12;100335.44;;;8.43;81.39
64886;BME280;51514;52.206;5.114;2023-12-22T02:42:38;100328.22;;;8.43;80.39
64886;BME280;51514;52.206;5.114;2023-12-22T02:45:05;100323.50;;;8.45;80.55
64886;BME280;51514;52.206;5.114;2023-12-22T02:47:31;100328.03;;;8.45;79.84
64886;BME280;51514;52.206;5.114;2023-12-22T02:49:58;100333.94;;;8.48;79.76
64886;BME280;51514;52.206;5.114;2023-12-22T02:52:24;100326.44;;;8.52;79.21
64886;BME280;51514;52.206;5.114;2023-12-22T02:54:49;100327.63;;;8.57;79.54
64886;BME280;51514;52.206;5.114;2023-12-22T02:57:14;100328.84;;;8.63;78.81
64886;BME280;51514;52.206;5.114;2023-12-22T02:59:40;100332.72;;;8.68;78.96
64886;BME280;51514;52.206;5.114;2023-12-22T03:02:05;100333.97;;;8.74;78.44
64886;BME280;51514;52.206;5.114;2023-12-22T03:04:30;100322.72;;;8.78;78.25
64886;BME280;51514;52.206;5.114;2023-12-22T03:06:56;100343.22;;;8.79;76.77
64886;BME280;51514;52.206;5.114;2023-12-22T03:09:21;100339.53;;;8.81;76.11
64886;BME280;51514;52.206;5.114;2023-12-22T03:11:48;100350.13;;;8.82;75.83
64886;BME280;51514;52.206;5.114;2023-12-22T03:14:13;100340.91;;;8.85;75.64
64886;BME280;51514;52.206;5.114;2023-12-22T03:16:39;100345.75;;;8.81;74.94
64886;BME280;51514;52.206;5.114;2023-12-22T03:19:05;100328.97;;;8.87;74.64
64886;BME280;51514;52.206;5.114;2023-12-22T03:21:31;100333.53;;;8.87;74.02
64886;BME280;51514;52.206;5.114;2023-12-22T03:23:56;100343.44;;;8.86;74.01
64886;BME280;51514;52.206;5.114;2023-12-22T03:26:22;100339.41;;;8.90;74.35
64886;BME280;51514;52.206;5.114;2023-12-22T03:28:47;100338.78;;;8.96;73.92
64886;BME280;51514;52.206;5.114;2023-12-22T03:31:12;100343.50;;;9.02;73.85
64886;BME280;51514;52.206;5.114;2023-12-22T03:33:38;100342.03;;;9.08;74.38
64886;BME280;51514;52.206;5.114;2023-12-22T03:36:03;100351.28;;;9.13;74.43
64886;BME280;51514;52.206;5.114;2023-12-22T03:38:28;100355.34;;;9.18;74.81
64886;BME280;51514;52.206;5.114;2023-12-22T03:40:54;100368.97;;;9.24;75.25
64886;BME280;51514;52.206;5.114;2023-12-22T03:43:19;100382.97;;;9.28;75.40
64886;BME280;51514;52.206;5.114;2023-12-22T03:45:44;100375.03;;;9.26;75.53
64886;BME280;51514;52.206;5.114;2023-12-22T03:48:10;100384.28;;;9.24;75.99
64886;BME280;51514;52.206;5.114;2023-12-22T03:50:35;100367.09;;;9.17;76.39
64886;BME280;51514;52.206;5.114;2023-12-22T03:53:00;100371.09;;;9.12;77.00
64886;BME280;51514;52.206;5.114;2023-12-22T03:55:26;100364.38;;;9.08;77.20
64886;BME280;51514;52.206;5.114;2023-12-22T03:57:51;100362.16;;;9.04;77.01
64886;BME280;51514;52.206;5.114;2023-12-22T04:00:17;100364.16;;;9.02;77.35
64886;BME280;51514;52.206;5.114;2023-12-22T04:02:42;100370.69;;;8.99;77.84
64886;BME280;51514;52.206;5.114;2023-12-22T04:05:11;100373.53;;;8.98;77.80
64886;BME280;51514;52.206;5.114;2023-12-22T04:07:36;100369.19;;;8.97;78.09
64886;BME280;51514;52.206;5.114;2023-12-22T04:10:01;100373.88;;;8.95;78.33
64886;BME280;51514;52.206;5.114;2023-12-22T04:12:27;100365.81;;;8.95;77.96
64886;BME280;51514;52.206;5.114;2023-12-22T04:14:52;100364.13;;;8.94;78.33
64886;BME280;51514;52.206;5.114;2023-12-22T04:17:19;100365.59;;;8.88;78.10
64886;BME280;51514;52.206;5.114;2023-12-22T04:19:44;100365.44;;;8.90;78.27
64886;BME280;51514;52.206;5.114;2023-12-22T04:22:09;100367.97;;;8.91;78.31
64886;BME280;51514;52.206;5.114;2023-12-22T04:24:35;100370.81;;;8.90;78.16
64886;BME280;51514;52.206;5.114;2023-12-22T04:27:00;100366.13;;;8.92;77.66
64886;BME280;51514;52.206;5.114;2023-12-22T04:29:25;100360.91;;;8.90;77.17
64886;BME280;51514;52.206;5.114;2023-12-22T04:31:50;100359.75;;;8.93;76.94
64886;BME280;51514;52.206;5.114;2023-12-22T04:34:16;100364.66;;;8.97;76.31
64886;BME280;51514;52.206;5.114;2023-12-22T04:36:41;100362.31;;;9.02;75.81
64886;BME280;51514;52.206;5.114;2023-12-22T04:39:07;100362.34;;;9.10;75.23
64886;BME280;51514;52.206;5.114;2023-12-22T04:41:32;100366.41;;;9.14;74.69
64886;BME280;51514;52.206;5.114;2023-12-22T04:43:57;100364.06;;;9.20;74.08
64886;BME280;51514;52.206;5.114;2023-12-22T04:46:23;100369.50;;;9.28;73.20
64886;BME280;51514;52.206;5.114;2023-12-22T04:48:48;100370.84;;;9.32;73.05
64886;BME280;51514;52.206;5.114;2023-12-22T04:51:14;100371.06;;;9.38;73.73
64886;BME280;51514;52.206;5.114;2023-12-22T04:53:39;100374.91;;;9.36;73.57
64886;BME280;51514;52.206;5.114;2023-12-22T04:56:04;100367.53;;;9.46;73.86
64886;BME280;51514;52.206;5.114;2023-12-22T04:58:30;100370.59;;;9.51;74.28
64886;BME280;51514;52.206;5.114;2023-12-22T05:00:55;100359.50;;;9.54;74.60
64886;BME280;51514;52.206;5.114;2023-12-22T05:03:20;100365.25;;;9.59;74.98
64886;BME280;51514;52.206;5.114;2023-12-22T05:05:46;100362.22;;;9.62;75.17
64886;BME280;51514;52.206;5.114;2023-12-22T05:08:11;100371.47;;;9.68;74.75
64886;BME280;51514;52.206;5.114;2023-12-22T05:10:36;100361.56;;;9.68;75.15
64886;BME280;51514;52.206;5.114;2023-12-22T05:13:02;100354.84;;;9.72;74.73
64886;BME280;51514;52.206;5.114;2023-12-22T05:15:27;100365.41;;;9.74;74.73
64886;BME280;51514;52.206;5.114;2023-12-22T05:17:52;100367.94;;;9.75;74.43
64886;BME280;51514;52.206;5.114;2023-12-22T05:20:18;100368.63;;;9.77;74.16
64886;BME280;51514;52.206;5.114;2023-12-22T05:22:43;100350.63;;;9.78;73.88
64886;BME280;51514;52.206;5.114;2023-12-22T05:25:08;100353.47;;;9.76;73.37
64886;BME280;51514;52.206;5.114;2023-12-22T05:27:35;100364.25;;;9.76;72.46
64886;BME280;51514;52.206;5.114;2023-12-22T05:30:01;100362.94;;;9.80;72.70
64886;BME280;51514;52.206;5.114;2023-12-22T05:32:28;100364.63;;;9.81;72.30
64886;BME280;51514;52.206;5.114;2023-12-22T05:34:53;100374.38;;;9.82;72.28
64886;BME280;51514;52.206;5.114;2023-12-22T05:37:19;100346.63;;;9.82;72.49
64886;BME280;51514;52.206;5.114;2023-12-22T05:39:44;100349.47;;;9.80;72.33
64886;BME280;51514;52.206;5.114;2023-12-22T05:42:10;100360.41;;;9.87;72.59
64886;BME280;51514;52.206;5.114;2023-12-22T05:44:36;100361.09;;;9.89;73.00
64886;BME280;51514;52.206;5.114;2023-12-22T05:47:02;100363.44;;;9.92;73.22
64886;BME280;51514;52.206;5.114;2023-12-22T05:49:28;100358.91;;;9.93;73.48
64886;BME280;51514;52.206;5.114;2023-12-22T05:51:53;100360.59;;;9.94;74.08
64886;BME280;51514;52.206;5.114;2023-12-22T05:54:18;100348.81;;;9.95;74.35
64886;BME280;51514;52.206;5.114;2023-12-22T05:56:45;100344.94;;;9.97;74.43
64886;BME280;51514;52.206;5.114;2023-12-22T05:59:10;100349.63;;;9.95;74.90
64886;BME280;51514;52.206;5.114;2023-12-22T06:01:35;100363.94;;;9.87;75.05
64886;BME280;51514;52.206;5.114;2023-12-22T06:04:01;100355.84;;;9.96;75.02
64886;BME280;51514;52.206;5.114;2023-12-22T06:06:27;100363.63;;;9.99;75.03
64886;BME280;51514;52.206;5.114;2023-12-22T06:08:52;100359.22;;;9.98;75.16
64886;BME280;51514;52.206;5.114;2023-12-22T06:11:18;100358.22;;;9.99;75.01
64886;BME280;51514;52.206;5.114;2023-12-22T06:13:43;100357.91;;;10.02;75.03
64886;BME280;51514;52.206;5.114;2023-12-22T06:16:13;100374.59;;;10.05;75.32
64886;BME280;51514;52.206;5.114;2023-12-22T06:18:39;100374.91;;;10.02;75.53
64886;BME280;51514;52.206;5.114;2023-12-22T06:21:04;100376.91;;;10.08;75.73
64886;BME280;51514;52.206;5.114;2023-12-22T06:23:30;100387.22;;;10.05;75.50
64886;BME280;51514;52.206;5.114;2023-12-22T06:25:55;100365.31;;;10.08;75.91
64886;BME280;51514;52.206;5.114;2023-12-22T06:28:20;100376.75;;;10.10;76.12
64886;BME280;51514;52.206;5.114;2023-12-22T06:30:46;100382.16;;;10.10;75.99
64886;BME280;51514;52.206;5.114;2023-12-22T06:33:12;100369.53;;;10.10;75.80
64886;BME280;51514;52.206;5.114;2023-12-22T06:35:37;100367.66;;;10.11;76.14
64886;BME280;51514;52.206;5.114;2023-12-22T06:38:05;100362.97;;;10.13;76.21
64886;BME280;51514;52.206;5.114;2023-12-22T06:40:32;100367.00;;;10.17;76.07
64886;BME280;51514;52.206;5.114;2023-12-22T06:42:57;100363.97;;;10.12;75.99
64886;BME280;51514;52.206;5.114;2023-12-22T06:45:22;100365.34;;;10.16;75.97
64886;BME280;51514;52.206;5.114;2023-12-22T06:47:48;100371.56;;;10.16;76.40
64886;BME280;51514;52.206;5.114;2023-12-22T06:50:13;100358.28;;;10.23;76.42
64886;BME280;51514;52.206;5.114;2023-12-22T06:52:38;100371.75;;;10.23;76.41
64886;BME280;51514;52.206;5.114;2023-12-22T06:55:05;100358.59;;;10.20;76.99
64886;BME280;51514;52.206;5.114;2023-12-22T06:57:30;100370.06;;;10.22;76.97
64886;BME280;51514;52.206;5.114;2023-12-22T06:59:56;100371.75;;;10.23;76.77
64886;BME280;51514;52.206;5.114;2023-12-22T07:02:21;100364.34;;;10.25;76.98
64886;BME280;51514;52.206;5.114;2023-12-22T07:07:29;100363.81;;;10.30;77.47
64886;BME280;51514;52.206;5.114;2023-12-22T07:09:55;100349.19;;;10.32;77.45
64886;BME280;51514;52.206;5.114;2023-12-22T07:12:20;100351.38;;;10.37;77.41
64886;BME280;51514;52.206;5.114;2023-12-22T07:14:45;100351.38;;;10.37;77.56
64886;BME280;51514;52.206;5.114;2023-12-22T07:17:11;100360.31;;;10.37;77.49
64886;BME280;51514;52.206;5.114;2023-12-22T07:19:37;100359.31;;;10.38;77.41
64886;BME280;51514;52.206;5.114;2023-12-22T07:22:02;100357.63;;;10.37;77.42
64886;BME280;51514;52.206;5.114;2023-12-22T07:24:29;100362.00;;;10.38;77.70
64886;BME280;51514;52.206;5.114;2023-12-22T07:26:54;100355.56;;;10.39;77.68
64886;BME280;51514;52.206;5.114;2023-12-22T07:29:19;100370.41;;;10.35;77.96
64886;BME280;51514;52.206;5.114;2023-12-22T07:31:44;100369.56;;;10.43;78.19
64886;BME280;51514;52.206;5.114;2023-12-22T07:34:10;100357.94;;;10.34;80.11
64886;BME280;51514;52.206;5.114;2023-12-22T07:36:35;100350.53;;;10.36;79.87
64886;BME280;51514;52.206;5.114;2023-12-22T07:39:00;100340.59;;;10.37;80.63
64886;BME280;51514;52.206;5.114;2023-12-22T07:41:26;100340.59;;;10.29;82.27
64886;BME280;51514;52.206;5.114;2023-12-22T07:43:51;100336.41;;;10.26;82.78
64886;BME280;51514;52.206;5.114;2023-12-22T07:46:20;100341.09;;;10.24;83.17
64886;BME280;51514;52.206;5.114;2023-12-22T07:48:47;100341.28;;;10.22;83.90
64886;BME280;51514;52.206;5.114;2023-12-22T07:51:12;100338.19;;;10.09;84.35
64886;BME280;51514;52.206;5.114;2023-12-22T07:53:38;100350.53;;;10.20;84.28
64886;BME280;51514;52.206;5.114;2023-12-22T07:56:04;100343.44;;;10.19;84.93
64886;BME280;51514;52.206;5.114;2023-12-22T07:58:31;100355.22;;;10.18;85.18
64886;BME280;51514;52.206;5.114;2023-12-22T08:00:56;100360.59;;;10.10;86.38
64886;BME280;51514;52.206;5.114;2023-12-22T08:03:21;100371.25;;;10.19;85.76
64886;BME280;51514;52.206;5.114;2023-12-22T08:05:47;100367.22;;;10.23;85.59
64886;BME280;51514;52.206;5.114;2023-12-22T08:08:12;100367.88;;;10.26;86.30
64886;BME280;51514;52.206;5.114;2023-12-22T08:10:37;100371.75;;;10.23;86.50
64886;BME280;51514;52.206;5.114;2023-12-22T08:13:03;100361.50;;;10.27;86.45
64886;BME280;51514;52.206;5.114;2023-12-22T08:15:28;100361.59;;;10.17;87.04
64886;BME280;51514;52.206;5.114;2023-12-22T08:17:54;100372.38;;;10.17;86.96
64886;BME280;51514;52.206;5.114;2023-12-22T08:20:20;100361.78;;;10.15;86.83
64886;BME280;51514;52.206;5.114;2023-12-22T08:22:46;100362.81;;;10.14;86.93
64886;BME280;51514;52.206;5.114;2023-12-22T08:25:12;100365.50;;;10.14;87.31
64886;BME280;51514;52.206;5.114;2023-12-22T08:27:38;100342.09;;;10.15;87.47
64886;BME280;51514;52.206;5.114;2023-12-22T08:30:04;100343.09;;;10.14;88.10
64886;BME280;51514;52.206;5.114;2023-12-22T08:32:29;100331.31;;;10.15;88.26
64886;BME280;51514;52.206;5.114;2023-12-22T08:34:54;100329.13;;;10.18;88.79
64886;BME280;51514;52.206;5.114;2023-12-22T08:37:20;100337.22;;;10.18;89.68
64886;BME280;51514;52.206;5.114;2023-12-22T08:39:45;100329.28;;;10.17;90.05
64886;BME280;51514;52.206;5.114;2023-12-22T08:42:10;100329.50;;;10.23;90.28
64886;BME280;51514;52.206;5.114;2023-12-22T08:44:37;100326.28;;;10.28;90.48
64886;BME280;51514;52.206;5.114;2023-12-22T08:47:02;100337.03;;;10.28;91.21
64886;BME280;51514;52.206;5.114;2023-12-22T08:49:28;100330.00;;;10.27;91.32
64886;BME280;51514;52.206;5.114;2023-12-22T08:51:53;100323.59;;;10.36;90.96
64886;BME280;51514;52.206;5.114;2023-12-22T08:54:18;100335.53;;;10.42;90.95
64886;BME280;51514;52.206;5.114;2023-12-22T08:56:44;100334.34;;;10.44;90.88
64886;BME280;51514;52.206;5.114;2023-12-22T08:59:09;100338.06;;;10.43;91.31
64886;BME280;51514;52.206;5.114;2023-12-22T09:01:35;100330.66;;;10.45;91.44
64886;BME280;51514;52.206;5.114;2023-12-22T09:04:00;100348.00;;;10.43;91.63
64886;BME280;51514;52.206;5.114;2023-12-22T09:06:27;100338.75;;;10.37;90.83
64886;BME280;51514;52.206;5.114;2023-12-22T09:08:52;100339.41;;;10.31;89.47
64886;BME280;51514;52.206;5.114;2023-12-22T09:11:19;100340.78;;;10.27;89.08
64886;BME280;51514;52.206;5.114;2023-12-22T09:13:45;100347.16;;;10.18;87.65
64886;BME280;51514;52.206;5.114;2023-12-22T09:16:11;100351.69;;;10.01;87.30
64886;BME280;51514;52.206;5.114;2023-12-22T09:18:40;100343.41;;;9.86;87.03
64886;BME280;51514;52.206;5.114;2023-12-22T09:21:05;100363.59;;;9.82;87.41
64886;BME280;51514;52.206;5.114;2023-12-22T09:23:32;100368.63;;;9.77;87.45
64886;BME280;51514;52.206;5.114;2023-12-22T09:25:57;100359.72;;;9.77;88.08
64886;BME280;51514;52.206;5.114;2023-12-22T09:28:23;100333.97;;;9.74;88.81
64886;BME280;51514;52.206;5.114;2023-12-22T09:30:48;100333.31;;;9.80;89.07
64886;BME280;51514;52.206;5.114;2023-12-22T09:33:14;100328.44;;;9.84;90.62
64886;BME280;51514;52.206;5.114;2023-12-22T09:35:40;100335.69;;;9.92;90.96
64886;BME280;51514;52.206;5.114;2023-12-22T09:38:07;100341.38;;;9.97;91.16
64886;BME280;51514;52.206;5.114;2023-12-22T09:40:34;100325.25;;;10.05;91.30
64886;BME280;51514;52.206;5.114;2023-12-22T09:43:02;100325.94;;;10.15;91.64
64886;BME280;51514;52.206;5.114;2023-12-22T09:45:29;100320.22;;;10.18;93.02
64886;BME280;51514;52.206;5.114;2023-12-22T09:47:56;100335.88;;;10.31;93.16
64886;BME280;51514;52.206;5.114;2023-12-22T09:50:23;100322.38;;;10.39;93.43
64886;BME280;51514;52.206;5.114;2023-12-22T09:52:48;100324.06;;;10.40;94.40
64886;BME280;51514;52.206;5.114;2023-12-22T09:55:14;100332.66;;;10.51;93.85
64886;BME280;51514;52.206;5.114;2023-12-22T09:57:39;100333.66;;;10.58;93.15
64886;BME280;51514;52.206;5.114;2023-12-22T10:00:08;100331.44;;;10.62;93.56
64886;BME280;51514;52.206;5.114;2023-12-22T10:02:34;100338.03;;;10.68;93.59
64886;BME280;51514;52.206;5.114;2023-12-22T10:05:01;100335.31;;;10.76;92.52
64886;BME280;51514;52.206;5.114;2023-12-22T10:07:26;100341.38;;;10.78;92.87
64886;BME280;51514;52.206;5.114;2023-12-22T10:09:52;100330.88;;;10.83;92.49
64886;BME280;51514;52.206;5.114;2023-12-22T10:12:19;100329.88;;;10.84;93.22
64886;BME280;51514;52.206;5.114;2023-12-22T10:14:46;100324.47;;;10.84;93.06
64886;BME280;51514;52.206;5.114;2023-12-22T10:17:12;100338.03;;;10.68;93.17
64886;BME280;51514;52.206;5.114;2023-12-22T10:19:39;100330.03;;;10.82;93.25
64886;BME280;51514;52.206;5.114;2023-12-22T10:22:04;100347.06;;;10.91;92.66
64886;BME280;51514;52.206;5.114;2023-12-22T10:24:42;100340.00;;;10.90;93.06
64886;BME280;51514;52.206;5.114;2023-12-22T10:27:08;100350.59;;;10.91;92.66
64886;BME280;51514;52.206;5.114;2023-12-22T10:29:34;100341.81;;;10.97;92.51
64886;BME280;51514;52.206;5.114;2023-12-22T10:32:04;100344.84;;;11.03;92.33
64886;BME280;51514;52.206;5.114;2023-12-22T10:34:30;100347.00;;;11.07;92.05
64886;BME280;51514;52.206;5.114;2023-12-22T10:36:56;100362.31;;;11.15;91.59
64886;BME280;51514;52.206;5.114;2023-12-22T10:39:22;100365.84;;;11.15;91.68
64886;BME280;51514;52.206;5.114;2023-12-22T10:41:48;100359.78;;;11.21;91.07
64886;BME280;51514;52.206;5.114;2023-12-22T10:44:15;100364.63;;;11.26;91.10
64886;BME280;51514;52.206;5.114;2023-12-22T10:46:42;100361.41;;;11.30;90.74
64886;BME280;51514;52.206;5.114;2023-12-22T10:49:07;100352.47;;;11.30;89.94
64886;BME280;51514;52.206;5.114;2023-12-22T10:51:33;100363.28;;;11.30;89.74
64886;BME280;51514;52.206;5.114;2023-12-22T10:53:59;100357.00;;;11.38;89.39
64886;BME280;51514;52.206;5.114;2023-12-22T10:56:27;100364.91;;;11.39;89.18
64886;BME280;51514;52.206;5.114;2023-12-22T10:58:53;100357.16;;;11.44;88.52
64886;BME280;51514;52.206;5.114;2023-12-22T11:01:23;100357.31;;;11.43;88.28
64886;BME280;51514;52.206;5.114;2023-12-22T11:03:50;100351.38;;;11.47;87.53
64886;BME280;51514;52.206;5.114;2023-12-22T11:06:16;100337.22;;;11.45;87.07
64886;BME280;51514;52.206;5.114;2023-12-22T11:08:43;100337.69;;;11.49;86.77
64886;BME280;51514;52.206;5.114;2023-12-22T11:11:16;100337.69;;;11.49;86.45
64886;BME280;51514;52.206;5.114;2023-12-22T11:13:46;100347.53;;;11.42;86.69
64886;BME280;51514;52.206;5.114;2023-12-22T11:16:12;100345.63;;;11.50;87.09
64886;BME280;51514;52.206;5.114;2023-12-22T11:18:40;100324.88;;;11.51;87.68
64886;BME280;51514;52.206;5.114;2023-12-22T11:21:08;100323.19;;;11.50;87.71
64886;BME280;51514;52.206;5.114;2023-12-22T11:23:35;100324.88;;;11.51;87.45
64886;BME280;51514;52.206;5.114;2023-12-22T11:26:02;100304.59;;;11.55;87.37
64886;BME280;51514;52.206;5.114;2023-12-22T11:28:31;100319.06;;;11.62;86.59
64886;BME280;51514;52.206;5.114;2023-12-22T11:31:01;100318.41;;;11.60;86.49
64886;BME280;51514;52.206;5.114;2023-12-22T11:33:28;100322.44;;;11.64;86.27
64886;BME280;51514;52.206;5.114;2023-12-22T11:35:55;100328.50;;;11.66;86.24
64886;BME280;51514;52.206;5.114;2023-12-22T11:38:21;100313.38;;;11.57;85.33
64886;BME280;51514;52.206;5.114;2023-12-22T11:40:49;100334.84;;;11.73;84.91
64886;BME280;51514;52.206;5.114;2023-12-22T11:43:18;100324.75;;;11.75;84.83
64886;BME280;51514;52.206;5.114;2023-12-22T11:45:44;100324.19;;;11.80;84.37
64886;BME280;51514;52.206;5.114;2023-12-22T11:48:10;100306.84;;;11.74;84.70
64886;BME280;51514;52.206;5.114;2023-12-22T11:50:36;100311.75;;;11.79;84.79
64886;BME280;51514;52.206;5.114;2023-12-22T11:53:18;100304.00;;;11.76;84.36
64886;BME280;51514;52.206;5.114;2023-12-22T11:56:03;100308.19;;;11.78;84.94
64886;BME280;51514;52.206;5.114;2023-12-22T12:01:01;100275.28;;;11.75;84.57
64886;BME280;51514;52.206;5.114;2023-12-22T12:03:30;100276.75;;;11.85;84.49
64886;BME280;51514;52.206;5.114;2023-12-22T12:08:43;100286.88;;;11.83;84.23
64886;BME280;51514;52.206;5.114;2023-12-22T12:11:08;100273.28;;;11.91;84.00
64886;BME280;51514;52.206;5.114;2023-12-22T12:13:34;100272.84;;;11.88;84.30
64886;BME280;51514;52.206;5.114;2023-12-22T12:16:00;100281.53;;;11.98;83.71
64886;BME280;51514;52.206;5.114;2023-12-22T12:18:30;100271.84;;;12.03;83.50
64886;BME280;51514;52.206;5.114;2023-12-22T12:20:57;100260.69;;;12.06;83.14
64886;BME280;51514;52.206;5.114;2023-12-22T12:23:26;100261.13;;;11.95;82.95
64886;BME280;51514;52.206;5.114;2023-12-22T12:25:55;100253.94;;;12.02;82.44
64886;BME280;51514;52.206;5.114;2023-12-22T12:28:29;100286.03;;;12.05;83.16
64886;BME280;51514;52.206;5.114;2023-12-22T12:31:21;100270.47;;;12.07;82.78
64886;BME280;51514;52.206;5.114;2023-12-22T12:34:00;100257.81;;;12.08;83.02
64886;BME280;51514;52.206;5.114;2023-12-22T12:36:25;100262.00;;;12.11;82.18
64886;BME280;51514;52.206;5.114;2023-12-22T12:39:17;100263.03;;;12.10;81.86
64886;BME280;51514;52.206;5.114;2023-12-22T12:41:46;100271.97;;;12.10;81.68
64886;BME280;51514;52.206;5.114;2023-12-22T12:44:13;100276.06;;;12.06;82.06
64886;BME280;51514;52.206;5.114;2023-12-22T12:46:40;100269.56;;;11.92;82.10
64886;BME280;51514;52.206;5.114;2023-12-22T12:49:10;100277.25;;;12.03;82.01
64886;BME280;51514;52.206;5.114;2023-12-22T12:51:42;100280.78;;;12.04;81.95
64886;BME280;51514;52.206;5.114;2023-12-22T12:54:09;100266.34;;;11.97;81.75
64886;BME280;51514;52.206;5.114;2023-12-22T12:59:10;100272.88;;;12.02;81.34
64886;BME280;51514;52.206;5.114;2023-12-22T13:01:40;100273.53;;;12.04;80.96
64886;BME280;51514;52.206;5.114;2023-12-22T13:04:05;100274.84;;;12.09;81.12